sensor_id;sensor_type;location;lat;lon;timestamp;temperature;humidity
15997;DHT22;8103;51.340;12.326;2022-09-09T00:04:59;15.50;99.90
15997;DHT22;8103;51.340;12.326;2022-09-09T00:07:47;15.50;99.90
15997;DHT22;8103;51.340;12.326;2022-09-09T00:16:22;15.50;99.90
15997;DHT22;8103;51.340;12.326;2022-09-09T00:21:57;15.50;99.90
15997;DHT22;8103;51.340;12.326;2022-09-09T00:24:49;15.50;99.90
15997;DHT22;8103;51.340;12.326;2022-09-09T00:27:42;15.50;99.90
15997;DHT22;8103;51.340;12.326;2022-09-09T00:30:18;15.50;99.90
15997;DHT22;8103;51.340;12.326;2022-09-09T00:35:46;15.40;99.90
15997;DHT22;8103;51.340;12.326;2022-09-09T00:40:52;15.40;99.90
15997;DHT22;8103;51.340;12.326;2022-09-09T00:43:27;15.40;99.90
15997;DHT22;8103;51.340;12.326;2022-09-09T00:54:13;15.40;99.90
15997;DHT22;8103;51.340;12.326;2022-09-09T00:56:47;15.30;99.90
15997;DHT22;8103;51.340;12.326;2022-09-09T00:59:37;15.30;99.90
15997;DHT22;8103;51.340;12.326;2022-09-09T01:02:28;15.30;99.90
15997;DHT22;8103;51.340;12.326;2022-09-09T01:05:07;15.30;99.90
15997;DHT22;8103;51.340;12.326;2022-09-09T01:07:37;15.30;99.90
15997;DHT22;8103;51.340;12.326;2022-09-09T01:10:21;15.30;99.90
15997;DHT22;8103;51.340;12.326;2022-09-09T01:12:52;15.20;99.90
15997;DHT22;8103;51.340;12.326;2022-09-09T01:15:24;15.20;99.90
15997;DHT22;8103;51.340;12.326;2022-09-09T01:18:13;15.20;99.90
15997;DHT22;8103;51.340;12.326;2022-09-09T01:26:35;15.20;99.90
15997;DHT22;8103;51.340;12.326;2022-09-09T01:29:08;15.20;99.90
15997;DHT22;8103;51.340;12.326;2022-09-09T01:31:53;15.20;99.90
15997;DHT22;8103;51.340;12.326;2022-09-09T01:34:27;15.10;99.90
15997;DHT22;8103;51.340;12.326;2022-09-09T01:37:13;15.20;99.90
15997;DHT22;8103;51.340;12.326;2022-09-09T01:39:42;15.10;99.90
15997;DHT22;8103;51.340;12.326;2022-09-09T01:42:13;15.10;99.90
15997;DHT22;8103;51.340;12.326;2022-09-09T01:44:41;15.10;99.90
15997;DHT22;8103;51.340;12.326;2022-09-09T01:47:09;15.10;99.90
15997;DHT22;8103;51.340;12.326;2022-09-09T01:49:36;15.10;99.90
15997;DHT22;8103;51.340;12.326;2022-09-09T01:52:03;15.10;99.90
15997;DHT22;8103;51.340;12.326;2022-09-09T01:54:31;15.10;99.90
15997;DHT22;8103;51.340;12.326;2022-09-09T01:57:23;15.10;99.90
15997;DHT22;8103;51.340;12.326;2022-09-09T02:00:04;15.10;99.90
15997;DHT22;8103;51.340;12.326;2022-09-09T02:05:43;15.00;99.90
15997;DHT22;8103;51.340;12.326;2022-09-09T02:08:13;15.00;99.90
15997;DHT22;8103;51.340;12.326;2022-09-09T02:10:47;15.00;99.90
15997;DHT22;8103;51.340;12.326;2022-09-09T02:13:19;15.00;99.90
15997;DHT22;8103;51.340;12.326;2022-09-09T02:16:05;15.00;99.90
15997;DHT22;8103;51.340;12.326;2022-09-09T02:18:58;15.00;99.90
15997;DHT22;8103;51.340;12.326;2022-09-09T02:21:28;15.00;99.90
15997;DHT22;8103;51.340;12.326;2022-09-09T02:23:57;15.00;99.90
15997;DHT22;8103;51.340;12.326;2022-09-09T02:26:26;15.20;99.90
15997;DHT22;8103;51.340;12.326;2022-09-09T02:28:55;15.00;99.90
15997;DHT22;8103;51.340;12.326;2022-09-09T02:31:25;15.00;99.90
15997;DHT22;8103;51.340;12.326;2022-09-09T02:33:57;15.00;99.90
15997;DHT22;8103;51.340;12.326;2022-09-09T02:36:28;15.00;99.90
15997;DHT22;8103;51.340;12.326;2022-09-09T02:38:56;15.00;99.90
15997;DHT22;8103;51.340;12.326;2022-09-09T02:41:28;15.00;99.90
15997;DHT22;8103;51.340;12.326;2022-09-09T02:43:57;14.90;99.90
15997;DHT22;8103;51.340;12.326;2022-09-09T02:46:36;14.90;99.90
15997;DHT22;8103;51.340;12.326;2022-09-09T02:49:10;14.90;99.90
15997;DHT22;8103;51.340;12.326;2022-09-09T02:52:12;14.90;99.90
15997;DHT22;8103;51.340;12.326;2022-09-09T02:54:42;14.80;99.90
15997;DHT22;8103;51.340;12.326;2022-09-09T02:57:17;14.80;99.90
15997;DHT22;8103;51.340;12.326;2022-09-09T02:59:46;14.80;99.90
15997;DHT22;8103;51.340;12.326;2022-09-09T03:02:14;14.80;99.90
15997;DHT22;8103;51.340;12.326;2022-09-09T03:04:41;14.80;99.90
15997;DHT22;8103;51.340;12.326;2022-09-09T03:07:11;14.80;99.90
15997;DHT22;8103;51.340;12.326;2022-09-09T03:09:38;14.80;99.90
15997;DHT22;8103;51.340;12.326;2022-09-09T03:12:05;14.80;99.90
15997;DHT22;8103;51.340;12.326;2022-09-09T03:14:33;14.80;99.90
15997;DHT22;8103;51.340;12.326;2022-09-09T03:17:00;14.80;99.90
15997;DHT22;8103;51.340;12.326;2022-09-09T03:19:28;14.80;99.90
15997;DHT22;8103;51.340;12.326;2022-09-09T03:21:56;14.80;99.90
15997;DHT22;8103;51.340;12.326;2022-09-09T03:24:24;14.80;99.90
15997;DHT22;8103;51.340;12.326;2022-09-09T03:26:51;14.80;99.90
15997;DHT22;8103;51.340;12.326;2022-09-09T03:29:18;14.80;99.90
15997;DHT22;8103;51.340;12.326;2022-09-09T03:31:45;14.80;99.90
15997;DHT22;8103;51.340;12.326;2022-09-09T03:34:12;14.80;99.90
15997;DHT22;8103;51.340;12.326;2022-09-09T03:36:40;14.80;99.90
15997;DHT22;8103;51.340;12.326;2022-09-09T03:39:07;14.80;99.90
15997;DHT22;8103;51.340;12.326;2022-09-09T03:41:34;14.80;99.90
15997;DHT22;8103;51.340;12.326;2022-09-09T03:44:01;14.70;99.90
15997;DHT22;8103;51.340;12.326;2022-09-09T03:46:27;14.80;99.90
15997;DHT22;8103;51.340;12.326;2022-09-09T03:48:54;14.70;99.90
15997;DHT22;8103;51.340;12.326;2022-09-09T03:51:21;14.70;99.90
15997;DHT22;8103;51.340;12.326;2022-09-09T03:53:48;14.70;99.90
15997;DHT22;8103;51.340;12.326;2022-09-09T03:56:16;14.60;99.90
15997;DHT22;8103;51.340;12.326;2022-09-09T03:58:42;14.60;99.90
15997;DHT22;8103;51.340;12.326;2022-09-09T04:01:11;14.60;99.90
15997;DHT22;8103;51.340;12.326;2022-09-09T04:03:41;14.60;99.90
15997;DHT22;8103;51.340;12.326;2022-09-09T04:06:09;14.60;99.90
15997;DHT22;8103;51.340;12.326;2022-09-09T04:08:38;14.60;99.90
15997;DHT22;8103;51.340;12.326;2022-09-09T04:11:05;14.60;99.90
15997;DHT22;8103;51.340;12.326;2022-09-09T04:13:37;14.60;99.90
15997;DHT22;8103;51.340;12.326;2022-09-09T04:16:06;14.60;99.90
15997;DHT22;8103;51.340;12.326;2022-09-09T04:18:33;14.60;99.90
15997;DHT22;8103;51.340;12.326;2022-09-09T04:21:01;14.60;99.90
15997;DHT22;8103;51.340;12.326;2022-09-09T04:23:29;14.60;99.90
15997;DHT22;8103;51.340;12.326;2022-09-09T04:25:58;14.60;99.90
15997;DHT22;8103;51.340;12.326;2022-09-09T04:28:27;14.60;99.90
15997;DHT22;8103;51.340;12.326;2022-09-09T04:30:55;14.60;99.90
15997;DHT22;8103;51.340;12.326;2022-09-09T04:33:24;14.60;99.90
15997;DHT22;8103;51.340;12.326;2022-09-09T04:35:53;14.60;99.90
15997;DHT22;8103;51.340;12.326;2022-09-09T04:38:20;14.60;99.90
15997;DHT22;8103;51.340;12.326;2022-09-09T04:40:50;14.60;99.90
15997;DHT22;8103;51.340;12.326;2022-09-09T04:43:18;14.60;99.90
15997;DHT22;8103;51.340;12.326;2022-09-09T04:45:50;14.60;99.90
15997;DHT22;8103;51.340;12.326;2022-09-09T04:48:18;14.70;99.90
15997;DHT22;8103;51.340;12.326;2022-09-09T04:53:23;14.70;99.90
15997;DHT22;8103;51.340;12.326;2022-09-09T04:55:50;14.70;99.90
15997;DHT22;8103;51.340;12.326;2022-09-09T04:58:17;14.80;99.90
15997;DHT22;8103;51.340;12.326;2022-09-09T05:00:44;14.80;99.90
15997;DHT22;8103;51.340;12.326;2022-09-09T05:03:11;14.80;99.90
15997;DHT22;8103;51.340;12.326;2022-09-09T05:05:39;14.80;99.90
15997;DHT22;8103;51.340;12.326;2022-09-09T05:08:07;14.90;99.90
15997;DHT22;8103;51.340;12.326;2022-09-09T05:10:38;14.90;99.90
15997;DHT22;8103;51.340;12.326;2022-09-09T05:13:05;15.00;99.90
15997;DHT22;8103;51.340;12.326;2022-09-09T05:15:33;15.10;99.90
15997;DHT22;8103;51.340;12.326;2022-09-09T05:18:00;15.20;99.90
15997;DHT22;8103;51.340;12.326;2022-09-09T05:20:30;15.20;99.90
15997;DHT22;8103;51.340;12.326;2022-09-09T05:22:57;15.30;99.90
15997;DHT22;8103;51.340;12.326;2022-09-09T05:25:24;15.40;99.90
15997;DHT22;8103;51.340;12.326;2022-09-09T05:27:52;15.40;99.90
15997;DHT22;8103;51.340;12.326;2022-09-09T05:30:21;15.50;99.90
15997;DHT22;8103;51.340;12.326;2022-09-09T05:32:49;15.60;99.90
15997;DHT22;8103;51.340;12.326;2022-09-09T05:35:15;15.50;99.90
15997;DHT22;8103;51.340;12.326;2022-09-09T05:37:44;15.60;99.90
15997;DHT22;8103;51.340;12.326;2022-09-09T05:40:12;15.70;99.90
15997;DHT22;8103;51.340;12.326;2022-09-09T05:42:39;15.70;99.90
15997;DHT22;8103;51.340;12.326;2022-09-09T05:45:07;15.70;99.90
15997;DHT22;8103;51.340;12.326;2022-09-09T05:47:35;15.80;99.90
15997;DHT22;8103;51.340;12.326;2022-09-09T05:50:04;15.80;99.90
15997;DHT22;8103;51.340;12.326;2022-09-09T05:52:31;15.80;99.90
15997;DHT22;8103;51.340;12.326;2022-09-09T05:54:59;15.90;99.90
15997;DHT22;8103;51.340;12.326;2022-09-09T05:57:26;15.90;99.90
15997;DHT22;8103;51.340;12.326;2022-09-09T05:59:52;16.00;99.90
15997;DHT22;8103;51.340;12.326;2022-09-09T06:02:20;16.00;99.90
15997;DHT22;8103;51.340;12.326;2022-09-09T06:04:47;16.10;99.90
15997;DHT22;8103;51.340;12.326;2022-09-09T06:07:14;16.20;99.90
15997;DHT22;8103;51.340;12.326;2022-09-09T06:09:41;16.20;99.90
15997;DHT22;8103;51.340;12.326;2022-09-09T06:12:08;16.20;99.90
15997;DHT22;8103;51.340;12.326;2022-09-09T06:14:35;16.20;99.90
15997;DHT22;8103;51.340;12.326;2022-09-09T06:17:03;16.30;99.90
15997;DHT22;8103;51.340;12.326;2022-09-09T06:19:30;16.30;99.90
15997;DHT22;8103;51.340;12.326;2022-09-09T06:21:57;16.30;99.90
15997;DHT22;8103;51.340;12.326;2022-09-09T06:24:25;16.40;99.90
15997;DHT22;8103;51.340;12.326;2022-09-09T06:26:51;16.40;99.90
15997;DHT22;8103;51.340;12.326;2022-09-09T06:29:18;16.50;99.90
15997;DHT22;8103;51.340;12.326;2022-09-09T06:31:45;16.60;99.90
15997;DHT22;8103;51.340;12.326;2022-09-09T06:34:12;16.60;99.90
15997;DHT22;8103;51.340;12.326;2022-09-09T06:36:39;16.60;99.90
15997;DHT22;8103;51.340;12.326;2022-09-09T06:39:06;16.60;99.90
15997;DHT22;8103;51.340;12.326;2022-09-09T06:41:39;16.70;99.90
15997;DHT22;8103;51.340;12.326;2022-09-09T06:44:07;16.80;99.90
15997;DHT22;8103;51.340;12.326;2022-09-09T06:46:34;16.90;99.90
15997;DHT22;8103;51.340;12.326;2022-09-09T06:49:02;16.90;99.90
15997;DHT22;8103;51.340;12.326;2022-09-09T06:51:31;17.00;99.90
15997;DHT22;8103;51.340;12.326;2022-09-09T06:53:59;17.10;99.90
15997;DHT22;8103;51.340;12.326;2022-09-09T06:58:56;17.30;99.90
15997;DHT22;8103;51.340;12.326;2022-09-09T07:01:26;17.40;99.90
15997;DHT22;8103;51.340;12.326;2022-09-09T07:03:56;17.50;99.90
15997;DHT22;8103;51.340;12.326;2022-09-09T07:06:28;17.60;99.90
15997;DHT22;8103;51.340;12.326;2022-09-09T07:08:57;17.80;99.90
15997;DHT22;8103;51.340;12.326;2022-09-09T07:11:29;18.00;99.90
15997;DHT22;8103;51.340;12.326;2022-09-09T07:13:57;18.00;99.90
15997;DHT22;8103;51.340;12.326;2022-09-09T07:16:26;18.10;99.90
15997;DHT22;8103;51.340;12.326;2022-09-09T07:18:54;18.10;99.90
15997;DHT22;8103;51.340;12.326;2022-09-09T07:21:31;18.10;99.90
15997;DHT22;8103;51.340;12.326;2022-09-09T07:23:58;18.00;99.90
15997;DHT22;8103;51.340;12.326;2022-09-09T07:26:28;18.00;99.90
15997;DHT22;8103;51.340;12.326;2022-09-09T07:28:55;18.10;99.90
15997;DHT22;8103;51.340;12.326;2022-09-09T07:31:32;18.20;99.90
15997;DHT22;8103;51.340;12.326;2022-09-09T07:34:00;18.30;99.90
15997;DHT22;8103;51.340;12.326;2022-09-09T07:36:29;18.30;99.90
15997;DHT22;8103;51.340;12.326;2022-09-09T07:39:04;18.40;99.90
15997;DHT22;8103;51.340;12.326;2022-09-09T07:41:37;18.50;99.90
15997;DHT22;8103;51.340;12.326;2022-09-09T07:44:07;18.60;99.90
15997;DHT22;8103;51.340;12.326;2022-09-09T07:46:35;18.80;99.90
15997;DHT22;8103;51.340;12.326;2022-09-09T07:49:03;19.00;99.90
15997;DHT22;8103;51.340;12.326;2022-09-09T07:51:35;19.10;99.90
15997;DHT22;8103;51.340;12.326;2022-09-09T07:54:06;19.30;99.30
15997;DHT22;8103;51.340;12.326;2022-09-09T07:56:33;19.60;98.70
15997;DHT22;8103;51.340;12.326;2022-09-09T07:59:00;19.80;98.30
15997;DHT22;8103;51.340;12.326;2022-09-09T08:01:31;20.00;97.40
15997;DHT22;8103;51.340;12.326;2022-09-09T08:04:00;20.20;96.90
15997;DHT22;8103;51.340;12.326;2022-09-09T08:06:34;20.20;97.00
15997;DHT22;8103;51.340;12.326;2022-09-09T08:09:01;20.40;96.80
15997;DHT22;8103;51.340;12.326;2022-09-09T08:11:29;20.60;96.60
15997;DHT22;8103;51.340;12.326;2022-09-09T08:13:57;20.80;95.90
15997;DHT22;8103;51.340;12.326;2022-09-09T08:16:30;21.10;95.70
15997;DHT22;8103;51.340;12.326;2022-09-09T08:18:57;21.20;94.90
15997;DHT22;8103;51.340;12.326;2022-09-09T08:21:27;21.20;94.60
15997;DHT22;8103;51.340;12.326;2022-09-09T08:23:55;21.10;94.70
15997;DHT22;8103;51.340;12.326;2022-09-09T08:26:27;20.80;95.10
15997;DHT22;8103;51.340;12.326;2022-09-09T08:28:57;20.50;95.90
15997;DHT22;8103;51.340;12.326;2022-09-09T08:31:26;20.20;96.80
15997;DHT22;8103;51.340;12.326;2022-09-09T08:33:58;20.20;97.30
15997;DHT22;8103;51.340;12.326;2022-09-09T08:36:36;20.20;97.40
15997;DHT22;8103;51.340;12.326;2022-09-09T08:39:05;20.40;97.40
15997;DHT22;8103;51.340;12.326;2022-09-09T08:41:45;20.40;97.00
15997;DHT22;8103;51.340;12.326;2022-09-09T08:44:41;20.60;97.00
15997;DHT22;8103;51.340;12.326;2022-09-09T08:47:35;20.70;96.50
15997;DHT22;8103;51.340;12.326;2022-09-09T08:50:29;20.80;96.20
15997;DHT22;8103;51.340;12.326;2022-09-09T08:53:17;20.90;96.30
15997;DHT22;8103;51.340;12.326;2022-09-09T08:56:14;21.10;96.00
15997;DHT22;8103;51.340;12.326;2022-09-09T08:58:55;21.70;94.00
15997;DHT22;8103;51.340;12.326;2022-09-09T09:01:45;22.60;91.80
15997;DHT22;8103;51.340;12.326;2022-09-09T09:07:18;24.00;86.50
15997;DHT22;8103;51.340;12.326;2022-09-09T09:10:07;24.50;83.50
15997;DHT22;8103;51.340;12.326;2022-09-09T09:12:56;25.50;76.80
15997;DHT22;8103;51.340;12.326;2022-09-09T09:15:25;26.20;72.80
15997;DHT22;8103;51.340;12.326;2022-09-09T09:17:55;26.70;67.40
15997;DHT22;8103;51.340;12.326;2022-09-09T09:20:32;26.70;66.50
15997;DHT22;8103;51.340;12.326;2022-09-09T09:23:02;27.10;65.40
15997;DHT22;8103;51.340;12.326;2022-09-09T09:25:39;27.90;62.80
15997;DHT22;8103;51.340;12.326;2022-09-09T09:28:24;29.20;59.40
15997;DHT22;8103;51.340;12.326;2022-09-09T09:31:07;30.20;55.00
15997;DHT22;8103;51.340;12.326;2022-09-09T09:36:09;31.00;50.40
15997;DHT22;8103;51.340;12.326;2022-09-09T09:38:36;30.90;49.40
15997;DHT22;8103;51.340;12.326;2022-09-09T09:41:40;30.90;49.00
15997;DHT22;8103;51.340;12.326;2022-09-09T09:44:31;30.30;49.90
15997;DHT22;8103;51.340;12.326;2022-09-09T09:47:18;29.40;51.80
15997;DHT22;8103;51.340;12.326;2022-09-09T09:49:56;28.70;54.00
15997;DHT22;8103;51.340;12.326;2022-09-09T09:52:27;28.00;55.70
15997;DHT22;8103;51.340;12.326;2022-09-09T09:54:56;27.50;57.10
15997;DHT22;8103;51.340;12.326;2022-09-09T09:57:29;26.90;58.60
15997;DHT22;8103;51.340;12.326;2022-09-09T10:00:18;26.30;61.00
15997;DHT22;8103;51.340;12.326;2022-09-09T10:02:47;25.80;63.10
15997;DHT22;8103;51.340;12.326;2022-09-09T10:05:25;25.70;65.10
15997;DHT22;8103;51.340;12.326;2022-09-09T10:08:13;26.20;63.20
15997;DHT22;8103;51.340;12.326;2022-09-09T10:10:51;26.70;60.90
15997;DHT22;8103;51.340;12.326;2022-09-09T10:13:53;26.70;60.20
15997;DHT22;8103;51.340;12.326;2022-09-09T10:19:29;26.10;61.40
15997;DHT22;8103;51.340;12.326;2022-09-09T10:31:16;28.40;57.00
15997;DHT22;8103;51.340;12.326;2022-09-09T10:33:56;29.50;55.80
15997;DHT22;8103;51.340;12.326;2022-09-09T10:36:27;31.50;51.10
15997;DHT22;8103;51.340;12.326;2022-09-09T10:39:05;31.20;49.30
15997;DHT22;8103;51.340;12.326;2022-09-09T10:42:01;29.60;51.70
15997;DHT22;8103;51.340;12.326;2022-09-09T10:55:51;28.00;56.50
15997;DHT22;8103;51.340;12.326;2022-09-09T10:58:32;30.30;52.50
15997;DHT22;8103;51.340;12.326;2022-09-09T11:01:06;32.60;47.60
15997;DHT22;8103;51.340;12.326;2022-09-09T11:03:40;34.30;42.40
15997;DHT22;8103;51.340;12.326;2022-09-09T11:06:19;35.30;40.70
15997;DHT22;8103;51.340;12.326;2022-09-09T11:08:48;33.80;40.70
15997;DHT22;8103;51.340;12.326;2022-09-09T11:11:51;31.70;44.00
15997;DHT22;8103;51.340;12.326;2022-09-09T11:14:29;30.10;47.50
15997;DHT22;8103;51.340;12.326;2022-09-09T11:17:03;29.00;50.20
15997;DHT22;8103;51.340;12.326;2022-09-09T11:19:44;28.20;52.00
15997;DHT22;8103;51.340;12.326;2022-09-09T11:22:26;28.00;52.80
15997;DHT22;8103;51.340;12.326;2022-09-09T11:25:13;29.10;51.40
15997;DHT22;8103;51.340;12.326;2022-09-09T11:31:15;34.30;41.80
15997;DHT22;8103;51.340;12.326;2022-09-09T11:42:20;38.30;32.40
15997;DHT22;8103;51.340;12.326;2022-09-09T11:44:47;37.80;33.30
15997;DHT22;8103;51.340;12.326;2022-09-09T11:50:56;38.20;32.00
15997;DHT22;8103;51.340;12.326;2022-09-09T11:55:40;38.40;31.40
15997;DHT22;8103;51.340;12.326;2022-09-09T12:03:50;38.70;30.90
15997;DHT22;8103;51.340;12.326;2022-09-09T12:06:26;38.40;31.70
15997;DHT22;8103;51.340;12.326;2022-09-09T12:09:08;37.50;32.40
15997;DHT22;8103;51.340;12.326;2022-09-09T12:11:37;35.80;35.20
15997;DHT22;8103;51.340;12.326;2022-09-09T12:14:04;36.30;35.60
15997;DHT22;8103;51.340;12.326;2022-09-09T12:16:34;37.80;33.20
15997;DHT22;8103;51.340;12.326;2022-09-09T12:21:41;39.30;30.90
15997;DHT22;8103;51.340;12.326;2022-09-09T12:24:11;39.40;31.10
15997;DHT22;8103;51.340;12.326;2022-09-09T12:27:17;38.80;31.20
15997;DHT22;8103;51.340;12.326;2022-09-09T12:30:01;38.50;31.70
15997;DHT22;8103;51.340;12.326;2022-09-09T12:32:29;39.10;30.70
15997;DHT22;8103;51.340;12.326;2022-09-09T12:38:00;41.10;29.20
15997;DHT22;8103;51.340;12.326;2022-09-09T12:40:32;42.10;27.80
15997;DHT22;8103;51.340;12.326;2022-09-09T12:43:16;41.80;27.20
15997;DHT22;8103;51.340;12.326;2022-09-09T12:45:43;41.30;27.90
15997;DHT22;8103;51.340;12.326;2022-09-09T12:48:12;40.90;28.30
15997;DHT22;8103;51.340;12.326;2022-09-09T12:50:50;41.70;27.70
15997;DHT22;8103;51.340;12.326;2022-09-09T12:53:26;41.70;27.40
15997;DHT22;8103;51.340;12.326;2022-09-09T12:56:00;39.80;28.20
15997;DHT22;8103;51.340;12.326;2022-09-09T12:58:30;37.50;30.60
15997;DHT22;8103;51.340;12.326;2022-09-09T13:01:02;35.00;33.30
15997;DHT22;8103;51.340;12.326;2022-09-09T13:03:33;33.30;36.70
15997;DHT22;8103;51.340;12.326;2022-09-09T13:06:24;34.30;36.10
15997;DHT22;8103;51.340;12.326;2022-09-09T13:08:56;36.80;33.10
15997;DHT22;8103;51.340;12.326;2022-09-09T13:11:28;38.60;30.40
15997;DHT22;8103;51.340;12.326;2022-09-09T13:13:58;39.50;29.50
15997;DHT22;8103;51.340;12.326;2022-09-09T13:16:28;40.00;28.60
15997;DHT22;8103;51.340;12.326;2022-09-09T13:19:24;38.10;29.30
15997;DHT22;8103;51.340;12.326;2022-09-09T13:21:55;34.90;33.00
15997;DHT22;8103;51.340;12.326;2022-09-09T13:27:02;30.50;39.70
15997;DHT22;8103;51.340;12.326;2022-09-09T13:29:31;29.00;42.50
15997;DHT22;8103;51.340;12.326;2022-09-09T13:32:26;28.00;44.70
15997;DHT22;8103;51.340;12.326;2022-09-09T13:34:58;27.20;47.60
15997;DHT22;8103;51.340;12.326;2022-09-09T13:37:39;26.70;48.90
15997;DHT22;8103;51.340;12.326;2022-09-09T13:40:20;26.40;49.90
15997;DHT22;8103;51.340;12.326;2022-09-09T13:42:52;26.10;50.30
15997;DHT22;8103;51.340;12.326;2022-09-09T13:45:22;25.80;51.60
15997;DHT22;8103;51.340;12.326;2022-09-09T13:47:50;25.70;53.00
15997;DHT22;8103;51.340;12.326;2022-09-09T13:50:26;25.50;54.00
15997;DHT22;8103;51.340;12.326;2022-09-09T13:52:55;25.30;54.90
15997;DHT22;8103;51.340;12.326;2022-09-09T13:55:29;25.20;56.10
15997;DHT22;8103;51.340;12.326;2022-09-09T13:57:58;25.00;57.20
15997;DHT22;8103;51.340;12.326;2022-09-09T14:00:29;24.80;58.20
15997;DHT22;8103;51.340;12.326;2022-09-09T14:02:57;24.10;57.40
15997;DHT22;8103;51.340;12.326;2022-09-09T14:05:24;23.40;55.90
15997;DHT22;8103;51.340;12.326;2022-09-09T14:07:51;23.00;55.30
15997;DHT22;8103;51.340;12.326;2022-09-09T14:10:19;22.80;55.40
15997;DHT22;8103;51.340;12.326;2022-09-09T14:12:46;22.80;55.20
15997;DHT22;8103;51.340;12.326;2022-09-09T14:15:13;23.10;55.10
15997;DHT22;8103;51.340;12.326;2022-09-09T14:17:41;23.40;54.80
15997;DHT22;8103;51.340;12.326;2022-09-09T14:20:10;23.70;54.40
15997;DHT22;8103;51.340;12.326;2022-09-09T14:22:38;23.70;53.80
15997;DHT22;8103;51.340;12.326;2022-09-09T14:25:08;23.60;53.80
15997;DHT22;8103;51.340;12.326;2022-09-09T14:27:35;23.40;54.40
15997;DHT22;8103;51.340;12.326;2022-09-09T14:30:02;23.20;54.70
15997;DHT22;8103;51.340;12.326;2022-09-09T14:32:29;22.90;55.40
15997;DHT22;8103;51.340;12.326;2022-09-09T14:34:56;22.80;56.00
15997;DHT22;8103;51.340;12.326;2022-09-09T14:37:23;22.70;56.40
15997;DHT22;8103;51.340;12.326;2022-09-09T14:39:50;22.70;57.00
15997;DHT22;8103;51.340;12.326;2022-09-09T14:42:17;22.70;57.20
15997;DHT22;8103;51.340;12.326;2022-09-09T14:44:45;22.80;57.50
15997;DHT22;8103;51.340;12.326;2022-09-09T14:47:12;22.80;57.60
15997;DHT22;8103;51.340;12.326;2022-09-09T14:49:39;22.80;57.70
15997;DHT22;8103;51.340;12.326;2022-09-09T14:52:06;22.90;58.00
15997;DHT22;8103;51.340;12.326;2022-09-09T14:54:34;23.00;58.00
15997;DHT22;8103;51.340;12.326;2022-09-09T14:57:01;23.10;57.90
15997;DHT22;8103;51.340;12.326;2022-09-09T14:59:28;23.20;57.70
15997;DHT22;8103;51.340;12.326;2022-09-09T15:01:55;23.30;57.70
15997;DHT22;8103;51.340;12.326;2022-09-09T15:04:22;23.50;57.70
15997;DHT22;8103;51.340;12.326;2022-09-09T15:06:49;23.80;57.60
15997;DHT22;8103;51.340;12.326;2022-09-09T15:09:18;23.90;57.40
15997;DHT22;8103;51.340;12.326;2022-09-09T15:11:45;23.90;58.00
15997;DHT22;8103;51.340;12.326;2022-09-09T15:14:12;23.70;58.00
15997;DHT22;8103;51.340;12.326;2022-09-09T15:16:40;23.50;58.20
15997;DHT22;8103;51.340;12.326;2022-09-09T15:19:07;23.30;59.10
15997;DHT22;8103;51.340;12.326;2022-09-09T15:21:36;23.20;59.80
15997;DHT22;8103;51.340;12.326;2022-09-09T15:24:05;23.10;61.50
15997;DHT22;8103;51.340;12.326;2022-09-09T15:26:35;23.20;61.70
15997;DHT22;8103;51.340;12.326;2022-09-09T15:29:05;23.10;61.50
15997;DHT22;8103;51.340;12.326;2022-09-09T15:31:32;23.00;60.70
15997;DHT22;8103;51.340;12.326;2022-09-09T15:34:02;22.90;60.50
15997;DHT22;8103;51.340;12.326;2022-09-09T15:38:59;22.90;59.30
15997;DHT22;8103;51.340;12.326;2022-09-09T15:41:26;23.00;59.60
15997;DHT22;8103;51.340;12.326;2022-09-09T15:43:55;23.00;59.30
15997;DHT22;8103;51.340;12.326;2022-09-09T15:48:57;22.90;59.30
15997;DHT22;8103;51.340;12.326;2022-09-09T15:51:24;22.80;59.50
15997;DHT22;8103;51.340;12.326;2022-09-09T15:54:15;22.70;60.00
15997;DHT22;8103;51.340;12.326;2022-09-09T15:56:45;22.60;60.80
15997;DHT22;8103;51.340;12.326;2022-09-09T15:59:12;22.60;61.20
15997;DHT22;8103;51.340;12.326;2022-09-09T16:01:41;22.50;61.30
15997;DHT22;8103;51.340;12.326;2022-09-09T16:04:08;22.50;62.10
15997;DHT22;8103;51.340;12.326;2022-09-09T16:06:35;22.50;62.10
15997;DHT22;8103;51.340;12.326;2022-09-09T16:09:04;22.50;62.40
15997;DHT22;8103;51.340;12.326;2022-09-09T16:11:34;22.40;63.40
15997;DHT22;8103;51.340;12.326;2022-09-09T16:14:02;22.40;63.30
15997;DHT22;8103;51.340;12.326;2022-09-09T16:16:30;22.30;63.80
15997;DHT22;8103;51.340;12.326;2022-09-09T16:18:59;22.30;63.80
15997;DHT22;8103;51.340;12.326;2022-09-09T16:21:28;22.30;64.10
15997;DHT22;8103;51.340;12.326;2022-09-09T16:23:57;22.20;63.90
15997;DHT22;8103;51.340;12.326;2022-09-09T16:26:27;22.20;64.00
15997;DHT22;8103;51.340;12.326;2022-09-09T16:28:57;22.10;64.20
15997;DHT22;8103;51.340;12.326;2022-09-09T16:31:29;22.10;64.90
15997;DHT22;8103;51.340;12.326;2022-09-09T16:33:58;22.00;65.40
15997;DHT22;8103;51.340;12.326;2022-09-09T16:36:27;22.00;66.30
15997;DHT22;8103;51.340;12.326;2022-09-09T16:39:00;21.90;66.80
15997;DHT22;8103;51.340;12.326;2022-09-09T16:41:29;21.80;66.90
15997;DHT22;8103;51.340;12.326;2022-09-09T16:44:01;21.70;67.40
15997;DHT22;8103;51.340;12.326;2022-09-09T16:46:31;21.70;67.80
15997;DHT22;8103;51.340;12.326;2022-09-09T16:49:00;21.60;67.80
15997;DHT22;8103;51.340;12.326;2022-09-09T16:51:32;21.50;67.60
15997;DHT22;8103;51.340;12.326;2022-09-09T16:54:01;21.50;68.00
15997;DHT22;8103;51.340;12.326;2022-09-09T16:56:30;21.40;68.40
15997;DHT22;8103;51.340;12.326;2022-09-09T16:59:04;21.40;68.80
15997;DHT22;8103;51.340;12.326;2022-09-09T17:01:33;21.30;69.10
15997;DHT22;8103;51.340;12.326;2022-09-09T17:04:06;21.30;69.50
15997;DHT22;8103;51.340;12.326;2022-09-09T17:06:34;21.20;69.70
15997;DHT22;8103;51.340;12.326;2022-09-09T17:09:12;21.20;70.50
15997;DHT22;8103;51.340;12.326;2022-09-09T17:11:43;21.10;71.20
15997;DHT22;8103;51.340;12.326;2022-09-09T17:14:14;21.10;71.80
15997;DHT22;8103;51.340;12.326;2022-09-09T17:16:41;21.00;71.80
15997;DHT22;8103;51.340;12.326;2022-09-09T17:19:09;21.00;72.50
15997;DHT22;8103;51.340;12.326;2022-09-09T17:21:37;20.90;72.60
15997;DHT22;8103;51.340;12.326;2022-09-09T17:24:20;20.90;73.20
15997;DHT22;8103;51.340;12.326;2022-09-09T17:26:48;20.80;73.40
15997;DHT22;8103;51.340;12.326;2022-09-09T17:29:15;20.80;73.30
15997;DHT22;8103;51.340;12.326;2022-09-09T17:31:43;20.70;72.70
15997;DHT22;8103;51.340;12.326;2022-09-09T17:34:10;20.60;72.00
15997;DHT22;8103;51.340;12.326;2022-09-09T17:36:37;20.50;71.50
15997;DHT22;8103;51.340;12.326;2022-09-09T17:39:05;20.50;71.20
15997;DHT22;8103;51.340;12.326;2022-09-09T17:41:36;20.40;71.10
15997;DHT22;8103;51.340;12.326;2022-09-09T17:44:05;20.30;71.30
15997;DHT22;8103;51.340;12.326;2022-09-09T17:46:39;20.20;71.50